createdAt,value
2019-01-20T00:01:12.520Z,13.15
2019-01-20T00:03:41.106Z,9.40
2019-01-20T00:06:09.766Z,9.65
2019-01-20T00:08:38.364Z,10.30
2019-01-20T00:11:07.280Z,11.05
2019-01-20T00:13:35.885Z,10.82
2019-01-20T00:16:04.826Z,12.35
2019-01-20T00:18:33.753Z,15.03
2019-01-20T00:21:02.375Z,11.33
2019-01-20T00:23:30.971Z,10.15
2019-01-20T00:25:59.561Z,8.80
2019-01-20T00:28:28.152Z,10.32
2019-01-20T00:30:56.736Z,13.72
2019-01-20T00:33:25.328Z,12.80
2019-01-20T00:35:53.899Z,10.50
2019-01-20T00:38:22.495Z,9.20
2019-01-20T00:40:51.148Z,7.20
2019-01-20T00:43:19.836Z,9.43
2019-01-20T00:45:48.427Z,14.38
2019-01-20T00:50:56.300Z,13.28
2019-01-20T00:53:24.871Z,13.68
2019-01-20T00:55:53.469Z,10.48
2019-01-20T00:58:22.291Z,10.68
2019-01-20T01:00:51.692Z,10.60
2019-01-20T01:03:21.174Z,11.00
2019-01-20T01:05:49.746Z,13.20
2019-01-20T01:08:18.329Z,10.63
2019-01-20T01:10:46.968Z,10.45
2019-01-20T01:13:15.843Z,11.45
2019-01-20T01:15:44.517Z,11.12
2019-01-20T01:18:13.095Z,9.28
2019-01-20T01:20:41.913Z,10.98
2019-01-20T01:23:29.748Z,13.08
2019-01-20T01:28:46.298Z,10.90
2019-01-20T01:31:14.861Z,8.80
2019-01-20T01:33:43.426Z,11.08
2019-01-20T01:36:14.575Z,10.80
2019-01-20T01:39:02.382Z,12.05
2019-01-20T01:41:31.236Z,11.78
2019-01-20T01:44:00.159Z,11.03
2019-01-20T01:46:28.780Z,11.75
2019-01-20T01:48:57.612Z,9.18
2019-01-20T01:51:26.197Z,9.75
2019-01-20T01:53:54.995Z,10.15
2019-01-20T01:56:23.818Z,8.45
2019-01-20T01:58:52.930Z,10.43
2019-01-20T02:01:21.801Z,9.30
2019-01-20T02:03:50.387Z,11.38
2019-01-20T02:06:19.205Z,10.82
2019-01-20T02:08:48.021Z,10.03
2019-01-20T02:11:16.605Z,11.78
2019-01-20T02:13:45.194Z,8.00
2019-01-20T02:16:13.755Z,15.55
2019-01-20T02:21:16.888Z,10.98
2019-01-20T02:23:45.589Z,8.55
2019-01-20T02:26:14.156Z,8.08
2019-01-20T02:28:42.752Z,11.20
2019-01-20T02:31:11.322Z,10.63
2019-01-20T02:33:59.190Z,12.07
2019-01-20T02:36:27.765Z,14.07
2019-01-20T02:39:15.647Z,26.73
2019-01-20T02:41:44.462Z,9.43
2019-01-20T02:44:13.281Z,15.18
2019-01-20T02:46:41.850Z,10.35
2019-01-20T02:49:10.672Z,12.88
2019-01-20T02:51:39.464Z,9.18
2019-01-20T02:54:08.053Z,11.38
2019-01-20T02:56:36.650Z,12.28
2019-01-20T02:59:05.329Z,8.15
2019-01-20T03:01:33.939Z,10.90
2019-01-20T03:04:02.513Z,8.90
2019-01-20T03:06:31.093Z,13.62
2019-01-20T03:09:00.205Z,10.40
2019-01-20T03:11:28.787Z,8.83
2019-01-20T03:16:45.264Z,10.00
2019-01-20T03:19:13.852Z,12.07
2019-01-20T03:21:42.692Z,16.02
2019-01-20T03:24:11.264Z,8.95
2019-01-20T03:26:39.844Z,9.10
2019-01-20T03:29:08.528Z,9.15
2019-01-20T03:31:37.367Z,14.63
2019-01-20T03:34:06.002Z,12.63
2019-01-20T03:36:34.602Z,11.75
2019-01-20T03:41:52.693Z,9.95
2019-01-20T03:44:21.982Z,6.12
2019-01-20T03:46:50.552Z,14.05
2019-01-20T03:49:19.168Z,9.60
2019-01-20T03:51:47.738Z,9.73
2019-01-20T03:54:16.316Z,8.55
2019-01-20T03:56:45.204Z,9.43
2019-01-20T03:59:14.040Z,18.92
2019-01-20T04:01:42.615Z,8.03
2019-01-20T04:04:11.190Z,13.30
2019-01-20T04:06:39.999Z,10.43
2019-01-20T04:09:08.644Z,9.60
2019-01-20T04:11:37.222Z,10.05
2019-01-20T04:14:06.013Z,20.45
2019-01-20T04:16:34.852Z,12.85
2019-01-20T04:19:03.791Z,13.65
2019-01-20T04:21:32.377Z,10.43
2019-01-20T04:24:20.433Z,8.70
2019-01-20T04:29:23.119Z,9.58
2019-01-20T04:31:51.629Z,9.13
2019-01-20T04:34:20.433Z,9.95
2019-01-20T04:37:09.318Z,10.53
2019-01-20T04:39:37.889Z,9.15
2019-01-20T04:42:06.479Z,10.00
2019-01-20T04:44:35.319Z,14.30
2019-01-20T04:47:03.941Z,11.03
2019-01-20T04:49:32.528Z,9.90
2019-01-20T04:52:20.364Z,14.10
2019-01-20T04:54:48.955Z,12.58
2019-01-20T04:57:20.377Z,8.33
2019-01-20T04:59:49.059Z,8.63
2019-01-20T05:02:17.641Z,8.40
2019-01-20T05:04:47.213Z,8.30
2019-01-20T05:07:16.512Z,6.87
2019-01-20T05:09:45.374Z,14.58
2019-01-20T05:12:14.197Z,7.80
2019-01-20T05:14:43.056Z,12.45
2019-01-20T05:17:11.627Z,14.78
2019-01-20T05:19:40.213Z,12.70
2019-01-20T05:22:08.803Z,13.48
2019-01-20T05:24:37.387Z,13.35
2019-01-20T05:27:05.966Z,10.18
2019-01-20T05:29:34.586Z,27.20
2019-01-20T05:32:03.168Z,10.10
2019-01-20T05:34:31.779Z,9.68
2019-01-20T05:37:00.360Z,9.15
2019-01-20T05:39:28.967Z,12.10
2019-01-20T05:41:57.569Z,11.45
2019-01-20T05:44:26.185Z,8.50
2019-01-20T05:46:54.988Z,11.78
2019-01-20T05:49:23.588Z,12.82
2019-01-20T05:51:52.436Z,11.75
2019-01-20T05:54:21.014Z,13.08
2019-01-20T05:56:49.587Z,9.48
2019-01-20T05:59:18.191Z,15.53
2019-01-20T06:01:46.798Z,15.75
2019-01-20T06:04:15.402Z,11.53
2019-01-20T06:09:31.630Z,14.90
2019-01-20T06:12:00.219Z,13.83
2019-01-20T06:14:28.808Z,13.53
2019-01-20T06:16:57.389Z,10.13
2019-01-20T06:19:25.976Z,12.90
2019-01-20T06:21:54.840Z,11.73
2019-01-20T06:24:23.435Z,13.35
2019-01-20T06:26:52.009Z,13.95
2019-01-20T06:29:20.610Z,13.80
2019-01-20T06:32:08.438Z,13.72
2019-01-20T06:37:11.837Z,13.70
2019-01-20T06:39:40.437Z,14.33
2019-01-20T06:42:09.037Z,15.25
2019-01-20T06:44:37.629Z,13.58
2019-01-20T06:47:06.228Z,17.10
2019-01-20T06:49:34.817Z,12.65
2019-01-20T06:52:03.399Z,15.72
2019-01-20T06:54:32.234Z,15.00
2019-01-20T06:57:00.835Z,12.70
2019-01-20T06:59:29.454Z,17.05
2019-01-20T07:01:58.067Z,16.27
2019-01-20T07:04:26.648Z,14.40
2019-01-20T07:06:55.227Z,15.35
2019-01-20T07:09:23.845Z,18.55
2019-01-20T07:11:52.397Z,15.38
2019-01-20T07:14:21.072Z,13.62
2019-01-20T07:16:49.732Z,12.13
2019-01-20T07:19:18.369Z,14.95
2019-01-20T07:21:47.011Z,13.53
2019-01-20T07:24:15.846Z,14.45
2019-01-20T07:26:44.555Z,15.30
2019-01-20T07:29:13.857Z,13.28
2019-01-20T07:31:42.606Z,19.57
2019-01-20T07:34:11.210Z,19.45
2019-01-20T07:36:39.793Z,12.28
2019-01-20T07:39:08.808Z,13.13
2019-01-20T07:41:37.675Z,11.55
2019-01-20T07:44:06.883Z,14.20
2019-01-20T07:49:23.337Z,12.65
2019-01-20T07:51:52.174Z,11.73
2019-01-20T07:54:21.039Z,19.17
2019-01-20T07:56:50.107Z,9.85
2019-01-20T07:59:18.965Z,13.30
2019-01-20T08:01:47.558Z,18.35
2019-01-20T08:04:16.239Z,17.62
2019-01-20T08:06:45.057Z,16.65
2019-01-20T08:11:48.554Z,21.12
2019-01-20T08:14:17.445Z,20.12
2019-01-20T08:16:46.031Z,15.45
2019-01-20T08:19:14.671Z,20.85
2019-01-20T08:21:43.345Z,18.77
2019-01-20T08:24:12.052Z,15.10
2019-01-20T08:26:40.702Z,19.77
2019-01-20T08:29:28.555Z,17.12
2019-01-20T08:31:57.649Z,16.50
2019-01-20T08:34:26.622Z,14.45
2019-01-20T08:36:55.252Z,21.00
2019-01-20T08:39:23.838Z,21.30
2019-01-20T08:41:52.420Z,30.12
2019-01-20T08:47:22.611Z,17.00
2019-01-20T08:49:51.498Z,16.10
2019-01-20T08:52:20.078Z,14.13
2019-01-20T08:54:48.859Z,22.42
2019-01-20T08:57:17.463Z,18.50
2019-01-20T08:59:46.138Z,21.05
2019-01-20T09:02:14.745Z,16.60
2019-01-20T09:04:43.328Z,17.37
2019-01-20T09:07:11.977Z,25.80
2019-01-20T09:09:40.698Z,18.45
2019-01-20T09:12:09.392Z,24.30
2019-01-20T09:14:38.071Z,29.00
2019-01-20T09:19:41.222Z,20.97
2019-01-20T09:22:09.900Z,22.37
2019-01-20T09:24:38.517Z,17.32
2019-01-20T09:27:07.218Z,19.75
2019-01-20T09:29:35.947Z,22.95
2019-01-20T09:32:05.162Z,19.45
2019-01-20T09:34:34.135Z,22.15
2019-01-20T09:37:02.782Z,20.82
2019-01-20T09:39:31.493Z,21.60
2019-01-20T09:42:00.268Z,23.18
2019-01-20T09:44:29.153Z,18.32
2019-01-20T09:46:58.008Z,19.07
2019-01-20T09:49:26.806Z,17.10
2019-01-20T09:51:55.424Z,21.60
2019-01-20T09:54:24.362Z,12.30
2019-01-20T09:56:53.012Z,25.93
2019-01-20T09:59:21.674Z,12.10
2019-01-20T10:01:50.445Z,12.07
2019-01-20T10:04:19.156Z,12.90
2019-01-20T10:06:48.040Z,15.37
2019-01-20T10:09:16.603Z,13.53
2019-01-20T10:11:45.172Z,15.13
2019-01-20T10:14:13.780Z,14.77
2019-01-20T10:16:42.342Z,12.30
2019-01-20T10:19:11.291Z,16.80
2019-01-20T10:21:39.871Z,11.90
2019-01-20T10:24:08.470Z,13.20
2019-01-20T10:26:38.886Z,11.40
2019-01-20T10:29:08.193Z,12.80
2019-01-20T10:31:56.067Z,11.60
2019-01-20T10:34:24.795Z,11.40
2019-01-20T10:36:53.719Z,11.30
2019-01-20T10:39:22.301Z,10.97
2019-01-20T10:41:50.974Z,13.60
2019-01-20T10:44:19.635Z,13.50
2019-01-20T10:46:48.228Z,12.60
2019-01-20T10:49:16.797Z,10.27
2019-01-20T10:51:45.606Z,11.20
2019-01-20T10:54:14.210Z,9.40
2019-01-20T10:56:42.853Z,10.93
2019-01-20T10:59:11.437Z,10.33
2019-01-20T11:01:59.381Z,11.33
2019-01-20T11:04:47.349Z,14.30
2019-01-20T11:07:16.341Z,10.83
2019-01-20T11:09:46.629Z,10.03
2019-01-20T11:12:15.233Z,9.33
2019-01-20T11:14:43.809Z,10.13
2019-01-20T11:17:12.458Z,10.13
2019-01-20T11:19:41.188Z,10.60
2019-01-20T11:22:10.145Z,8.10
2019-01-20T11:24:38.860Z,9.83
2019-01-20T11:27:07.481Z,9.20
2019-01-20T11:29:36.138Z,8.18
2019-01-20T11:32:04.878Z,8.88
2019-01-20T11:34:33.514Z,7.08
2019-01-20T11:37:02.319Z,7.62
2019-01-20T11:39:31.332Z,6.45
2019-01-20T11:42:00.456Z,8.48
2019-01-20T11:44:29.086Z,8.55
2019-01-20T11:46:57.675Z,6.15
2019-01-20T11:49:26.251Z,6.70
2019-01-20T11:51:55.153Z,7.72
2019-01-20T11:54:23.778Z,4.92
2019-01-20T11:56:52.376Z,7.80
2019-01-20T11:59:20.987Z,7.78
2019-01-20T12:02:09.004Z,5.72
2019-01-20T12:04:37.611Z,6.67
2019-01-20T12:07:06.208Z,6.15
2019-01-20T12:09:34.784Z,8.40
2019-01-20T12:12:03.761Z,7.40
2019-01-20T12:14:32.643Z,8.25
2019-01-20T12:17:01.533Z,7.50
2019-01-20T12:19:30.150Z,7.75
2019-01-20T12:21:58.919Z,7.67
2019-01-20T12:24:27.598Z,8.90
2019-01-20T12:26:56.231Z,7.70
2019-01-20T12:29:25.690Z,7.07
2019-01-20T12:31:54.412Z,6.10
2019-01-20T12:34:23.732Z,6.10
2019-01-20T12:36:52.345Z,5.60
2019-01-20T12:39:20.957Z,5.30
2019-01-20T12:41:49.996Z,4.57
2019-01-20T12:44:18.714Z,6.10
2019-01-20T12:46:47.321Z,4.33
2019-01-20T12:49:15.974Z,6.43
2019-01-20T12:51:44.859Z,11.73
2019-01-20T12:54:13.488Z,4.97
2019-01-20T12:56:42.109Z,5.67
2019-01-20T12:59:10.868Z,9.40
2019-01-20T13:01:39.766Z,4.93
2019-01-20T13:04:08.577Z,4.07
2019-01-20T13:06:37.206Z,5.37
2019-01-20T13:09:28.237Z,5.47
2019-01-20T13:11:56.994Z,7.00
2019-01-20T13:14:44.897Z,5.03
2019-01-20T13:17:13.569Z,6.30
2019-01-20T13:19:42.606Z,6.40
2019-01-20T13:22:11.285Z,8.23
2019-01-20T13:24:39.986Z,6.77
2019-01-20T13:27:09.286Z,7.57
2019-01-20T13:29:38.045Z,8.33
2019-01-20T13:32:06.905Z,6.60
2019-01-20T13:34:35.600Z,7.23
2019-01-20T13:37:04.355Z,7.70
2019-01-20T13:39:33.195Z,5.43
2019-01-20T13:42:01.990Z,5.67
2019-01-20T13:44:30.849Z,5.97
2019-01-20T13:46:59.701Z,6.73
2019-01-20T13:49:28.347Z,6.57
2019-01-20T13:51:57.041Z,7.13
2019-01-20T13:54:25.795Z,6.43
2019-01-20T13:56:54.502Z,6.47
2019-01-20T13:59:23.229Z,7.80
2019-01-20T14:01:52.084Z,6.43
2019-01-20T14:04:20.913Z,8.90
2019-01-20T14:09:25.769Z,4.33
2019-01-20T14:11:54.672Z,4.78
2019-01-20T14:14:23.629Z,8.48
2019-01-20T14:16:52.738Z,6.97
2019-01-20T14:19:22.005Z,6.67
2019-01-20T14:21:52.045Z,6.92
2019-01-20T14:24:20.831Z,6.05
2019-01-20T14:26:49.615Z,7.35
2019-01-20T14:29:18.625Z,6.72
2019-01-20T14:31:47.393Z,5.92
2019-01-20T14:34:15.981Z,6.53
2019-01-20T14:36:44.883Z,8.63
2019-01-20T14:39:13.663Z,5.70
2019-01-20T14:41:42.579Z,6.37
2019-01-20T14:44:11.674Z,9.53
2019-01-20T14:46:40.385Z,8.80
2019-01-20T14:49:09.136Z,7.50
2019-01-20T14:51:37.828Z,7.70
2019-01-20T14:54:06.849Z,11.80
2019-01-20T14:56:35.793Z,8.08
2019-01-20T14:59:04.638Z,8.23
2019-01-20T15:01:33.452Z,7.45
2019-01-20T15:04:02.070Z,10.95
2019-01-20T15:06:30.913Z,7.03
2019-01-20T15:08:59.881Z,11.18
2019-01-20T15:11:29.505Z,8.60
2019-01-20T15:13:58.100Z,8.65
2019-01-20T15:16:26.684Z,8.95
2019-01-20T15:18:55.271Z,6.75
2019-01-20T15:21:24.148Z,10.78
2019-01-20T15:23:52.797Z,9.60
2019-01-20T15:26:21.494Z,7.72
2019-01-20T15:28:50.115Z,11.85
2019-01-20T15:31:18.726Z,13.93
2019-01-20T15:33:47.380Z,15.48
2019-01-20T15:36:15.991Z,8.10
2019-01-20T15:38:44.668Z,11.38
2019-01-20T15:41:13.347Z,9.83
2019-01-20T15:43:42.046Z,14.63
2019-01-20T15:46:10.986Z,12.40
2019-01-20T15:48:40.578Z,15.95
2019-01-20T15:51:09.192Z,15.25
2019-01-20T15:53:37.772Z,12.68
2019-01-20T15:56:06.412Z,11.90
2019-01-20T15:58:34.986Z,15.32
2019-01-20T16:01:22.869Z,14.30
2019-01-20T16:03:51.470Z,15.90
2019-01-20T16:06:20.022Z,11.68
2019-01-20T16:08:48.658Z,11.55
2019-01-20T16:11:17.196Z,15.63
2019-01-20T16:13:45.792Z,12.18
2019-01-20T16:16:14.351Z,16.42
2019-01-20T16:18:43.021Z,13.72
2019-01-20T16:21:11.937Z,24.30
2019-01-20T16:23:40.530Z,16.02
2019-01-20T16:26:09.350Z,16.75
2019-01-20T16:28:38.411Z,23.00
2019-01-20T16:31:07.051Z,23.10
2019-01-20T16:33:36.418Z,25.95
2019-01-20T16:36:05.380Z,39.25
2019-01-20T16:38:34.182Z,28.50
2019-01-20T16:41:03.108Z,23.02
2019-01-20T16:43:32.048Z,16.05
2019-01-20T16:46:00.693Z,18.00
2019-01-20T16:48:29.293Z,14.05
2019-01-20T16:50:57.910Z,18.87
2019-01-20T16:53:26.481Z,14.70
2019-01-20T16:55:55.093Z,12.20
2019-01-20T16:58:42.911Z,12.60
2019-01-20T17:01:11.517Z,13.58
2019-01-20T17:03:40.394Z,26.27
2019-01-20T17:06:09.017Z,23.80
2019-01-20T17:08:37.608Z,23.87
2019-01-20T17:11:06.229Z,24.40
2019-01-20T17:13:34.800Z,26.00
2019-01-20T17:16:03.393Z,11.83
2019-01-20T17:18:31.988Z,17.50
2019-01-20T17:21:00.714Z,13.08
2019-01-20T17:23:29.932Z,15.43
2019-01-20T17:26:03.388Z,13.60
2019-01-20T17:28:32.784Z,13.20
2019-01-20T17:31:01.489Z,13.30
2019-01-20T17:33:30.218Z,12.70
2019-01-20T17:35:58.831Z,14.07
2019-01-20T17:38:27.412Z,13.00
2019-01-20T17:40:56.079Z,12.65
2019-01-20T17:43:43.897Z,13.03
2019-01-20T17:46:31.799Z,11.65
2019-01-20T17:49:00.718Z,14.18
2019-01-20T17:51:29.332Z,16.02
2019-01-20T17:53:57.985Z,14.45
2019-01-20T17:56:26.529Z,7.85
2019-01-20T17:58:55.440Z,12.95
2019-01-20T18:01:24.063Z,15.63
2019-01-20T18:03:53.231Z,18.25
2019-01-20T18:06:21.801Z,15.83
2019-01-20T18:08:50.464Z,13.83
2019-01-20T18:14:06.744Z,14.30
2019-01-20T18:16:35.300Z,15.90
2019-01-20T18:19:04.142Z,15.00
2019-01-20T18:21:32.720Z,16.70
2019-01-20T18:24:01.534Z,11.95
2019-01-20T18:26:31.030Z,19.42
2019-01-20T18:28:59.650Z,13.75
2019-01-20T18:31:28.609Z,18.70
2019-01-20T18:33:57.282Z,23.02
2019-01-20T18:36:25.946Z,14.90
2019-01-20T18:38:54.650Z,12.35
2019-01-20T18:43:57.884Z,12.28
2019-01-20T18:46:26.816Z,10.98
2019-01-20T18:48:58.679Z,16.48
2019-01-20T18:51:27.267Z,13.68
2019-01-20T18:53:55.884Z,20.23
2019-01-20T18:56:24.475Z,13.90
2019-01-20T18:58:53.217Z,16.95
2019-01-20T19:01:22.367Z,15.60
2019-01-20T19:03:51.168Z,17.80
2019-01-20T19:06:20.928Z,15.98
2019-01-20T19:08:49.803Z,14.60
2019-01-20T19:11:18.443Z,21.65
2019-01-20T19:13:47.100Z,16.37
2019-01-20T19:16:15.789Z,16.57
2019-01-20T19:18:44.397Z,15.80
2019-01-20T19:21:13.349Z,16.32
2019-01-20T19:23:42.051Z,12.33
2019-01-20T19:26:10.956Z,14.05
2019-01-20T19:28:39.595Z,13.30
2019-01-20T19:34:15.417Z,15.90
2019-01-20T19:36:44.123Z,14.33
2019-01-20T19:39:12.785Z,13.55
2019-01-20T19:41:41.728Z,19.60
2019-01-20T19:44:10.299Z,11.68
2019-01-20T19:46:38.977Z,18.50
2019-01-20T19:49:07.595Z,16.27
2019-01-20T19:51:36.445Z,19.07
2019-01-20T19:54:05.325Z,18.32
2019-01-20T19:56:33.999Z,16.67
2019-01-20T19:59:02.730Z,13.58
2019-01-20T20:01:31.591Z,14.28
2019-01-20T20:04:00.199Z,19.95
2019-01-20T20:06:28.777Z,16.50
2019-01-20T20:12:04.883Z,14.30
2019-01-20T20:14:33.461Z,21.97
2019-01-20T20:17:02.075Z,18.77
2019-01-20T20:19:30.656Z,18.17
2019-01-20T20:21:59.310Z,20.80
2019-01-20T20:24:27.915Z,18.55
2019-01-20T20:26:56.836Z,16.52
2019-01-20T20:29:25.854Z,20.62
2019-01-20T20:31:54.473Z,17.37
2019-01-20T20:34:23.359Z,23.77
2019-01-20T20:36:52.041Z,23.67
2019-01-20T20:39:20.651Z,20.52
2019-01-20T20:41:49.477Z,15.95
2019-01-20T20:44:18.121Z,22.22
2019-01-20T20:46:46.700Z,13.38
2019-01-20T20:49:15.364Z,15.75
2019-01-20T20:51:44.182Z,13.70
2019-01-20T20:54:12.803Z,18.98
2019-01-20T20:56:41.377Z,18.52
2019-01-20T20:59:10.254Z,17.45
2019-01-20T21:01:39.089Z,16.50
2019-01-20T21:04:07.695Z,13.85
2019-01-20T21:06:36.282Z,14.15
2019-01-20T21:09:08.434Z,13.32
2019-01-20T21:11:37.034Z,12.85
2019-01-20T21:14:06.215Z,12.20
2019-01-20T21:16:38.041Z,16.27
2019-01-20T21:19:05.421Z,13.13
2019-01-20T21:21:34.002Z,12.63
2019-01-20T21:24:02.686Z,12.18
2019-01-20T21:26:31.266Z,13.72
2019-01-20T21:29:19.145Z,11.38
2019-01-20T21:31:47.786Z,11.73
2019-01-20T21:34:16.457Z,13.08
2019-01-20T21:36:45.069Z,20.12
2019-01-20T21:39:13.735Z,10.48
2019-01-20T21:41:42.315Z,10.88
2019-01-20T21:44:11.219Z,12.37
2019-01-20T21:46:45.277Z,11.45
2019-01-20T21:49:10.140Z,11.63
2019-01-20T21:51:38.741Z,16.65
2019-01-20T21:54:07.398Z,20.27
2019-01-20T21:56:35.991Z,10.53
2019-01-20T21:59:04.592Z,13.78
2019-01-20T22:01:33.415Z,12.40
2019-01-20T22:04:01.987Z,13.72
2019-01-20T22:06:30.579Z,13.20
2019-01-20T22:09:18.466Z,14.18
2019-01-20T22:11:47.104Z,14.43
2019-01-20T22:14:15.665Z,15.40
2019-01-20T22:16:44.500Z,13.83
2019-01-20T22:19:13.089Z,19.25
2019-01-20T22:27:03.682Z,20.02
2019-01-20T22:29:32.276Z,18.07
2019-01-20T22:34:48.499Z,16.42
2019-01-20T22:37:17.071Z,17.32
2019-01-20T22:40:04.976Z,14.35
2019-01-20T22:42:33.547Z,17.52
2019-01-20T22:45:02.124Z,17.85
2019-01-20T22:47:30.935Z,17.15
2019-01-20T22:53:08.234Z,16.65
2019-01-20T22:55:36.841Z,16.10
2019-01-20T22:58:45.263Z,13.48
2019-01-20T23:01:37.049Z,16.55
2019-01-20T23:04:05.709Z,16.40
2019-01-20T23:06:34.393Z,17.07
2019-01-20T23:09:06.767Z,19.57
2019-01-20T23:11:33.758Z,19.82
2019-01-20T23:14:02.327Z,13.85
2019-01-20T23:16:30.950Z,23.57
2019-01-20T23:18:59.525Z,13.48
2019-01-20T23:21:28.137Z,24.07
2019-01-20T23:26:31.287Z,15.90
2019-01-20T23:28:59.856Z,37.63
2019-01-20T23:31:28.442Z,13.53
2019-01-20T23:33:57.042Z,18.87
2019-01-20T23:36:25.609Z,16.57
2019-01-20T23:38:54.214Z,20.05
2019-01-20T23:41:22.772Z,23.22
2019-01-20T23:43:51.402Z,19.17
2019-01-20T23:46:20.197Z,22.85
2019-01-20T23:51:23.136Z,17.95
2019-01-20T23:53:51.717Z,19.90
2019-01-20T23:56:20.287Z,23.47
2019-01-20T23:58:49.102Z,14.87
